Time,TemperatureF,DewpointF,PressureIn,WindDirection,WindDirectionDegrees,WindSpeedMPH,WindSpeedGustMPH,Humidity,HourlyPrecipIn,Conditions,Clouds,dailyrainin,SoftwareType,DateUTC
2013-10-30 00:00:00,73.3,67.5,29.46,North,0,0.0,0.0,82,0.00,,,0.00,WUHU216HW,2013-10-30 05:00:00,
2013-10-30 00:05:00,73.3,67.5,29.46,North,0,0.0,0.0,82,0.00,,,0.00,WUHU216HW,2013-10-30 05:05:00,
2013-10-30 00:30:00,73.3,67.5,29.45,North,0,0.0,0.0,82,0.00,,,0.00,WUHU216HW,2013-10-30 05:30:00,
2013-10-30 00:35:00,73.3,67.5,29.45,North,0,0.0,0.0,82,0.00,,,0.00,WUHU216HW,2013-10-30 05:35:00,
2013-10-30 01:00:00,73.3,67.8,29.45,North,0,0.0,0.0,83,0.00,,,0.00,WUHU216HW,2013-10-30 06:00:00,
2013-10-30 01:05:00,73.3,67.8,29.45,North,0,0.0,0.0,83,0.00,,,0.00,WUHU216HW,2013-10-30 06:05:00,
2013-10-30 01:30:00,73.4,68.0,29.44,North,0,0.0,0.0,83,0.00,,,0.00,WUHU216HW,2013-10-30 06:30:00,
2013-10-30 01:35:00,73.4,68.0,29.44,North,0,0.0,0.0,83,0.00,,,0.00,WUHU216HW,2013-10-30 06:35:00,
2013-10-30 02:00:00,73.6,68.1,29.42,North,0,0.0,0.0,83,0.00,,,0.00,WUHU216HW,2013-10-30 07:00:00,
2013-10-30 02:05:00,73.6,68.1,29.42,North,0,0.0,0.0,83,0.00,,,0.00,WUHU216HW,2013-10-30 07:05:00,
2013-10-30 02:30:00,73.6,68.1,29.42,North,0,0.0,0.0,83,0.00,,,0.00,WUHU216HW,2013-10-30 07:30:00,
2013-10-30 02:35:00,73.6,68.1,29.42,North,0,0.0,0.0,83,0.00,,,0.00,WUHU216HW,2013-10-30 07:35:00,
2013-10-30 03:00:00,73.8,68.3,29.41,North,0,0.0,0.0,83,0.00,,,0.00,WUHU216HW,2013-10-30 08:00:00,
2013-10-30 03:05:00,73.8,68.3,29.41,North,0,0.0,0.0,83,0.00,,,0.00,WUHU216HW,2013-10-30 08:05:00,
2013-10-30 03:30:00,73.8,68.3,29.41,North,0,0.0,0.0,83,0.00,,,0.00,WUHU216HW,2013-10-30 08:30:00,
2013-10-30 03:35:00,73.8,68.3,29.41,North,0,0.0,0.0,83,0.00,,,0.00,WUHU216HW,2013-10-30 08:35:00,
2013-10-30 04:00:00,74.2,68.4,29.39,North,0,0.0,0.0,82,0.00,,,0.00,WUHU216HW,2013-10-30 09:00:00,
2013-10-30 04:05:00,74.2,68.4,29.39,North,0,0.0,0.0,82,0.00,,,0.00,WUHU216HW,2013-10-30 09:05:00,
2013-10-30 04:30:00,74.3,68.6,29.39,North,0,0.0,0.0,82,0.00,,,0.00,WUHU216HW,2013-10-30 09:30:00,
2013-10-30 04:35:00,74.3,68.6,29.39,North,0,0.0,0.0,82,0.00,,,0.00,WUHU216HW,2013-10-30 09:35:00,
2013-10-30 05:00:00,74.3,68.6,29.37,North,0,0.0,0.0,82,0.00,,,0.00,WUHU216HW,2013-10-30 10:00:00,
2013-10-30 05:05:00,74.3,68.6,29.37,North,0,0.0,0.0,82,0.00,,,0.00,WUHU216HW,2013-10-30 10:05:00,
2013-10-30 05:30:00,74.2,68.4,29.37,North,0,0.0,0.0,82,0.00,,,0.00,WUHU216HW,2013-10-30 10:30:00,
2013-10-30 05:35:00,74.2,68.4,29.37,North,0,0.0,0.0,82,0.00,,,0.00,WUHU216HW,2013-10-30 10:35:00,
2013-10-30 06:00:00,74.2,68.1,29.38,North,0,0.0,0.0,81,0.00,,,0.00,WUHU216HW,2013-10-30 11:00:00,
2013-10-30 06:05:00,74.2,68.1,29.38,North,0,0.0,0.0,81,0.00,,,0.00,WUHU216HW,2013-10-30 11:05:00,
2013-10-30 06:30:00,74.3,68.2,29.38,North,0,0.0,0.0,81,0.00,,,0.00,WUHU216HW,2013-10-30 11:30:00,
2013-10-30 06:35:00,74.3,68.2,29.38,North,0,0.0,0.0,81,0.00,,,0.00,WUHU216HW,2013-10-30 11:35:00,
2013-10-30 07:00:00,74.2,68.1,29.37,North,0,0.0,0.0,81,0.00,,,0.00,WUHU216HW,2013-10-30 12:00:00,
2013-10-30 07:05:00,74.2,68.1,29.37,North,0,0.0,0.0,81,0.00,,,0.00,WUHU216HW,2013-10-30 12:05:00,
2013-10-30 07:30:00,74.2,68.1,29.37,North,0,0.0,0.0,81,0.00,,,0.00,WUHU216HW,2013-10-30 12:30:00,
2013-10-30 07:35:00,74.2,68.1,29.37,North,0,0.0,0.0,81,0.00,,,0.00,WUHU216HW,2013-10-30 12:35:00,
2013-10-30 08:00:00,74.3,68.6,29.39,North,0,0.0,0.0,82,0.00,,,0.00,WUHU216HW,2013-10-30 13:00:00,
2013-10-30 08:05:00,74.3,68.6,29.39,North,0,0.0,0.0,82,0.00,,,0.00,WUHU216HW,2013-10-30 13:05:00,
2013-10-30 08:30:00,74.2,68.1,29.39,North,0,0.0,0.0,81,0.03,,,0.00,WUHU216HW,2013-10-30 13:30:00,
2013-10-30 08:35:00,74.2,68.1,29.39,North,0,0.0,0.0,81,0.03,,,0.00,WUHU216HW,2013-10-30 13:35:00,
2013-10-30 09:00:00,74.3,68.2,29.40,North,0,0.0,0.0,81,0.03,,,0.03,WUHU216HW,2013-10-30 14:00:00,
2013-10-30 09:05:00,74.3,68.2,29.40,North,0,0.0,0.0,81,0.03,,,0.03,WUHU216HW,2013-10-30 14:05:00,
2013-10-30 09:30:00,74.5,68.4,29.40,North,0,0.0,0.0,81,0.00,,,0.03,WUHU216HW,2013-10-30 14:30:00,
2013-10-30 09:35:00,74.5,68.4,29.40,North,0,0.0,0.0,81,0.00,,,0.03,WUHU216HW,2013-10-30 14:35:00,
2013-10-30 10:00:00,75.6,69.4,29.41,North,0,0.0,0.0,81,0.00,,,0.03,WUHU216HW,2013-10-30 15:00:00,
2013-10-30 10:05:00,75.6,69.4,29.41,North,0,0.0,0.0,81,0.00,,,0.03,WUHU216HW,2013-10-30 15:05:00,
2013-10-30 10:30:00,77.4,71.8,29.41,North,0,0.0,0.0,83,0.00,,,0.03,WUHU216HW,2013-10-30 15:30:00,
2013-10-30 10:35:00,77.4,71.8,29.41,North,0,0.0,0.0,83,0.00,,,0.03,WUHU216HW,2013-10-30 15:35:00,
2013-10-30 11:00:00,77.9,72.0,29.41,North,0,0.0,0.0,82,0.00,,,0.03,WUHU216HW,2013-10-30 16:00:00,
2013-10-30 11:05:00,77.9,72.0,29.41,North,0,0.0,0.0,82,0.00,,,0.03,WUHU216HW,2013-10-30 16:05:00,
2013-10-30 11:30:00,79.2,72.9,29.40,North,0,0.0,0.0,81,0.00,,,0.03,WUHU216HW,2013-10-30 16:30:00,
2013-10-30 11:35:00,79.2,72.9,29.40,North,0,0.0,0.0,81,0.00,,,0.03,WUHU216HW,2013-10-30 16:35:00,
2013-10-30 12:00:00,79.6,72.6,29.39,North,0,0.0,0.0,79,0.00,,,0.03,WUHU216HW,2013-10-30 17:00:00,
2013-10-30 12:05:00,79.6,72.6,29.39,North,0,0.0,0.0,79,0.00,,,0.03,WUHU216HW,2013-10-30 17:05:00,
2013-10-30 12:30:00,80.3,72.8,29.38,North,0,0.0,0.0,78,0.00,,,0.03,WUHU216HW,2013-10-30 17:30:00,
2013-10-30 12:35:00,80.3,72.8,29.38,North,0,0.0,0.0,78,0.00,,,0.03,WUHU216HW,2013-10-30 17:35:00,
2013-10-30 13:00:00,81.5,72.8,29.37,North,0,0.0,0.0,75,0.00,,,0.03,WUHU216HW,2013-10-30 18:00:00,
2013-10-30 13:05:00,81.5,72.8,29.37,North,0,0.0,0.0,75,0.00,,,0.03,WUHU216HW,2013-10-30 18:05:00,
2013-10-30 13:30:00,81.2,73.4,29.35,North,0,0.0,0.0,77,0.00,,,0.03,WUHU216HW,2013-10-30 18:30:00,
2013-10-30 13:35:00,81.2,73.4,29.35,North,0,0.0,0.0,77,0.00,,,0.03,WUHU216HW,2013-10-30 18:35:00,
2013-10-30 14:00:00,82.6,74.3,29.34,North,0,0.0,0.0,76,0.00,,,0.03,WUHU216HW,2013-10-30 19:00:00,
2013-10-30 14:05:00,82.6,74.3,29.34,North,0,0.0,0.0,76,0.00,,,0.03,WUHU216HW,2013-10-30 19:05:00,
2013-10-30 14:30:00,82.6,74.3,29.32,North,0,0.0,0.0,76,0.00,,,0.03,WUHU216HW,2013-10-30 19:30:00,
2013-10-30 14:35:00,82.6,74.3,29.32,North,0,0.0,0.0,76,0.00,,,0.03,WUHU216HW,2013-10-30 19:35:00,
2013-10-30 15:00:00,82.6,73.4,29.30,North,0,0.0,0.0,74,0.00,,,0.03,WUHU216HW,2013-10-30 20:00:00,
2013-10-30 15:05:00,82.6,73.4,29.30,North,0,0.0,0.0,74,0.00,,,0.03,WUHU216HW,2013-10-30 20:05:00,
2013-10-30 15:30:00,82.1,73.4,29.29,North,0,0.0,0.0,75,0.00,,,0.03,WUHU216HW,2013-10-30 20:30:00,
2013-10-30 15:35:00,82.1,73.4,29.29,North,0,0.0,0.0,75,0.00,,,0.03,WUHU216HW,2013-10-30 20:35:00,
2013-10-30 16:00:00,81.5,72.8,29.28,North,0,0.0,0.0,75,0.00,,,0.03,WUHU216HW,2013-10-30 21:00:00,
2013-10-30 16:05:00,81.5,72.8,29.28,North,0,0.0,0.0,75,0.00,,,0.03,WUHU216HW,2013-10-30 21:05:00,
2013-10-30 16:30:00,82.3,73.5,29.27,North,0,0.0,0.0,75,0.00,,,0.03,WUHU216HW,2013-10-30 21:30:00,
2013-10-30 16:35:00,82.3,73.5,29.27,North,0,0.0,0.0,75,0.00,,,0.03,WUHU216HW,2013-10-30 21:35:00,
2013-10-30 17:00:00,81.5,73.7,29.26,North,0,0.0,0.0,77,0.01,,,0.03,WUHU216HW,2013-10-30 22:00:00,
2013-10-30 17:05:00,81.5,73.7,29.26,North,0,0.0,0.0,77,0.01,,,0.03,WUHU216HW,2013-10-30 22:05:00,
2013-10-30 17:30:00,81.7,74.6,29.26,North,0,0.0,0.0,79,0.01,,,0.04,WUHU216HW,2013-10-30 22:30:00,
2013-10-30 17:35:00,81.7,74.6,29.26,North,0,0.0,0.0,79,0.01,,,0.04,WUHU216HW,2013-10-30 22:35:00,
2013-10-30 18:00:00,81.4,73.5,29.24,North,0,0.0,0.0,77,0.00,,,0.04,WUHU216HW,2013-10-30 23:00:00,
2013-10-30 18:05:00,81.4,73.5,29.24,North,0,0.0,0.0,77,0.00,,,0.04,WUHU216HW,2013-10-30 23:05:00,
2013-10-30 18:30:00,80.6,73.2,29.25,North,0,0.0,0.0,78,0.00,,,0.04,WUHU216HW,2013-10-30 23:30:00,
2013-10-30 18:35:00,80.6,73.2,29.25,North,0,0.0,0.0,78,0.00,,,0.04,WUHU216HW,2013-10-30 23:35:00,
2013-10-30 19:00:00,78.5,72.2,29.25,North,0,0.0,0.0,81,0.04,,,0.04,WUHU216HW,2013-10-31 00:00:00,
2013-10-30 19:05:00,78.5,72.2,29.25,North,0,0.0,0.0,81,0.04,,,0.04,WUHU216HW,2013-10-31 00:05:00,
2013-10-30 19:30:00,77.0,71.1,29.25,North,0,0.0,0.0,82,0.04,,,0.08,WUHU216HW,2013-10-31 00:30:00,
2013-10-30 19:35:00,77.0,71.1,29.25,North,0,0.0,0.0,82,0.04,,,0.08,WUHU216HW,2013-10-31 00:35:00,
2013-10-30 20:00:00,76.3,70.5,29.25,North,0,0.0,0.0,82,0.00,,,0.08,WUHU216HW,2013-10-31 01:00:00,
2013-10-30 20:05:00,76.3,70.5,29.25,North,0,0.0,0.0,82,0.00,,,0.08,WUHU216HW,2013-10-31 01:05:00,
2013-10-30 20:30:00,76.0,70.1,29.25,North,0,0.0,0.0,82,0.01,,,0.08,WUHU216HW,2013-10-31 01:30:00,
2013-10-30 20:35:00,76.0,70.1,29.25,North,0,0.0,0.0,82,0.01,,,0.08,WUHU216HW,2013-10-31 01:35:00,
2013-10-30 21:00:00,75.8,69.6,29.24,North,0,0.0,0.0,81,0.01,,,0.09,WUHU216HW,2013-10-31 02:00:00,
2013-10-30 21:05:00,75.8,69.6,29.24,North,0,0.0,0.0,81,0.01,,,0.09,WUHU216HW,2013-10-31 02:05:00,
2013-10-30 21:30:00,75.6,69.4,29.25,North,0,0.0,0.0,81,0.00,,,0.09,WUHU216HW,2013-10-31 02:30:00,
2013-10-30 21:35:00,75.6,69.4,29.25,North,0,0.0,0.0,81,0.00,,,0.09,WUHU216HW,2013-10-31 02:35:00,
2013-10-30 22:00:00,75.2,69.1,29.26,North,0,0.0,0.0,81,0.03,,,0.09,WUHU216HW,2013-10-31 03:00:00,
2013-10-30 22:05:00,75.2,69.1,29.26,North,0,0.0,0.0,81,0.03,,,0.09,WUHU216HW,2013-10-31 03:05:00,
2013-10-30 22:29:00,74.5,68.0,29.26,North,0,0.0,0.0,80,0.57,,,0.12,WUHU216HW,2013-10-31 03:29:00,
2013-10-30 22:30:00,74.5,68.0,29.26,North,0,0.0,0.0,80,0.57,,,0.12,WUHU216HW,2013-10-31 03:30:00,
2013-10-30 22:35:00,74.5,68.0,29.26,North,0,0.0,0.0,80,0.57,,,0.12,WUHU216HW,2013-10-31 03:35:00,
2013-10-30 23:00:00,74.3,67.1,29.25,North,0,0.0,0.0,78,0.64,,,0.66,WUHU216HW,2013-10-31 04:00:00,
2013-10-30 23:01:00,74.3,67.1,29.25,North,0,0.0,0.0,78,0.64,,,0.66,WUHU216HW,2013-10-31 04:01:00,
2013-10-30 23:02:00,74.3,67.1,29.25,North,0,0.0,0.0,78,0.64,,,0.66,WUHU216HW,2013-10-31 04:02:00,
2013-10-30 23:07:00,74.3,67.1,29.25,North,0,0.0,0.0,78,0.64,,,0.66,WUHU216HW,2013-10-31 04:07:00,
2013-10-30 23:30:00,74.2,66.5,29.24,North,0,0.0,0.0,77,0.44,,,0.76,WUHU216HW,2013-10-31 04:30:00,
2013-10-30 23:35:00,74.2,66.5,29.24,North,0,0.0,0.0,77,0.44,,,0.76,WUHU216HW,2013-10-31 04:35:00,